Time;durP1;ratioP1;P1;durP2;ratioP2;P2;SDS_P1;SDS_P2;PMS_P1;PMS_P2;Temp;Humidity;BMP_temperature;BMP_pressure;BME280_temperature;BME280_humidity;BME280_pressure;Samples;Min_cycle;Max_cycle;Signal;HPM_P1;HPM_P2
2024/02/29 00:01:24;;;;;;;;;;;;;;;21.30;35.06;101395.91;4131644;28;19932;-56
2024/02/29 00:03:26;;;;;;;;;;;;;;;21.31;35.37;101392.28;4131811;28;19932;-54
2024/02/29 00:05:28;;;;;;;;;;;;;;;21.31;35.21;101385.13;4131770;28;19929;-54
2024/02/29 00:07:31;;;;;;;;;;;;;;;21.30;35.34;101386.06;4131681;28;19996;-53
2024/02/29 00:09:32;;;;;;;;;;;;;;;21.31;35.35;101384.25;4114553;28;19934;-53
2024/02/29 00:11:34;;;;;;;;;;;;;;;21.32;35.22;101378.78;4131260;28;19926;-53
2024/02/29 00:13:36;;;;;;;;;;;;;;;21.34;35.35;101376.84;4131657;28;20064;-54
2024/02/29 00:15:37;;;;;;;;;;;;;;;21.36;35.41;101384.75;4131622;28;20017;-53
2024/02/29 00:17:40;;;;;;;;;;;;;;;21.34;35.38;101370.66;4114573;28;19960;-54
2024/02/29 00:19:41;;;;;;;;;;;;;;;21.33;35.27;101366.28;4131420;28;19926;-55
2024/02/29 00:21:44;;;;;;;;;;;;;;;21.33;35.14;101369.78;4131718;28;19965;-54
2024/02/29 00:23:45;;;;;;;;;;;;;;;21.33;35.39;101366.28;4131537;28;19925;-52
2024/02/29 00:25:47;;;;;;;;;;;;;;;21.32;35.34;101362.72;4131657;28;19926;-52
2024/02/29 00:27:49;;;;;;;;;;;;;;;21.33;35.17;101350.22;4113912;28;19926;-54
2024/02/29 00:29:50;;;;;;;;;;;;;;;21.32;35.37;101352.03;4131386;28;19926;-55
2024/02/29 00:31:52;;;;;;;;;;;;;;;21.29;35.67;101340.69;4131626;28;20458;-53
2024/02/29 00:33:54;;;;;;;;;;;;;;;21.28;35.56;101336.31;4131717;28;19984;-54
2024/02/29 00:35:55;;;;;;;;;;;;;;;21.27;35.55;101334.59;4132540;28;19934;-54
2024/02/29 00:38:11;;;;;;;;;;;;;;;21.30;35.42;101329.91;4134728;28;19925;-56
2024/02/29 00:40:13;;;;;;;;;;;;;;;21.32;35.49;101332.44;4134763;28;20021;-53
2024/02/29 00:42:14;;;;;;;;;;;;;;;21.33;35.34;101331.50;4134594;28;20384;-54
2024/02/29 00:44:16;;;;;;;;;;;;;;;21.32;35.28;101322.59;4134665;28;20021;-54
2024/02/29 00:46:17;;;;;;;;;;;;;;;21.32;35.52;101324.44;4134800;28;20016;-54
2024/02/29 00:48:19;;;;;;;;;;;;;;;21.31;35.37;101320.03;4134863;28;19980;-54
2024/02/29 00:50:23;;;;;;;;;;;;;;;21.33;35.41;101313.59;4134790;28;19925;-55
2024/02/29 00:52:25;;;;;;;;;;;;;;;21.30;35.48;101315.63;4134894;28;19926;-55
2024/02/29 00:54:26;;;;;;;;;;;;;;;21.30;35.35;101308.50;4134617;28;19930;-54
2024/02/29 00:56:28;;;;;;;;;;;;;;;21.31;35.54;101304.84;4134378;28;19933;-54
2024/02/29 00:58:29;;;;;;;;;;;;;;;21.32;35.47;101301.19;4134523;28;19925;-53
2024/02/29 01:00:34;;;;;;;;;;;;;;;21.34;35.19;101301.09;4134279;28;19937;-53
2024/02/29 01:02:35;;;;;;;;;;;;;;;21.35;35.50;101297.44;4134518;28;19930;-48
2024/02/29 01:04:37;;;;;;;;;;;;;;;21.34;35.54;101298.41;4134639;28;19971;-52
2024/02/29 01:06:39;;;;;;;;;;;;;;;21.33;35.54;101297.56;4134263;28;19925;-54
2024/02/29 01:08:40;;;;;;;;;;;;;;;21.33;35.53;101291.34;4134288;28;19926;-52
2024/02/29 01:10:42;;;;;;;;;;;;;;;21.32;35.43;101298.50;4134034;28;19925;-55
2024/02/29 01:12:48;;;;;;;;;;;;;;;21.33;35.41;101286.00;4134364;28;19949;-56
2024/02/29 01:14:55;;;;;;;;;;;;;;;21.33;35.38;101278.81;4134378;28;20021;-52
2024/02/29 01:16:56;;;;;;;;;;;;;;;21.32;35.42;101282.47;4134366;28;19936;-55
2024/02/29 01:19:00;;;;;;;;;;;;;;;21.31;35.68;101274.56;4134033;28;20423;-54
2024/02/29 01:21:02;;;;;;;;;;;;;;;21.32;35.58;101268.25;4134362;28;19973;-55
2024/02/29 01:23:03;;;;;;;;;;;;;;;21.33;35.57;101267.28;4134591;28;19972;-55
2024/02/29 01:25:05;;;;;;;;;;;;;;;21.35;35.39;101266.19;4133978;28;19964;-54
2024/02/29 01:27:12;;;;;;;;;;;;;;;21.34;35.64;101264.47;4134256;28;19925;-53
2024/02/29 01:29:13;;;;;;;;;;;;;;;21.35;35.29;101252.81;4134156;28;19926;-55
2024/02/29 01:31:15;;;;;;;;;;;;;;;21.35;35.42;101259.97;4133873;28;19925;-54
2024/02/29 01:33:16;;;;;;;;;;;;;;;21.35;35.50;101251.94;4134094;28;20419;-53
2024/02/29 01:35:18;;;;;;;;;;;;;;;21.36;35.28;101242.97;4133758;28;20036;-55
2024/02/29 01:37:24;;;;;;;;;;;;;;;21.35;35.42;101236.75;4134128;28;20276;-55
2024/02/29 01:39:26;;;;;;;;;;;;;;;21.36;35.63;101240.28;4116114;28;19977;-53
2024/02/29 01:41:28;;;;;;;;;;;;;;;21.34;35.33;101226.19;4133841;28;19965;-55
2024/02/29 01:43:30;;;;;;;;;;;;;;;21.31;35.67;101232.63;4133803;28;19933;-54
2024/02/29 01:45:32;;;;;;;;;;;;;;;21.34;35.73;101224.34;4116689;28;19965;-55
2024/02/29 01:47:38;;;;;;;;;;;;;;;21.35;35.59;101226.06;4133441;28;20005;-55
2024/02/29 01:49:46;;;;;;;;;;;;;;;21.37;35.69;101223.25;4133733;28;20020;-56
2024/02/29 01:51:49;;;;;;;;;;;;;;;21.36;35.69;101218.88;4133635;28;19925;-55
2024/02/29 01:53:50;;;;;;;;;;;;;;;21.35;35.56;101218.03;4133395;28;19933;-55
2024/02/29 01:55:52;;;;;;;;;;;;;;;21.37;35.64;101212.56;4133876;28;20441;-54
2024/02/29 01:57:59;;;;;;;;;;;;;;;21.35;35.76;101204.66;4133749;28;20395;-54
2024/02/29 02:00:06;;;;;;;;;;;;;;;21.34;35.61;101200.28;4133586;28;19926;-55
2024/02/29 02:02:13;;;;;;;;;;;;;;;21.37;35.60;101192.03;4133673;28;19925;-55
2024/02/29 02:04:14;;;;;;;;;;;;;;;21.39;35.71;101189.22;4133484;28;19932;-54
2024/02/29 02:06:16;;;;;;;;;;;;;;;21.41;35.75;101192.66;4133735;28;19933;-55
2024/02/29 02:08:18;;;;;;;;;;;;;;;21.41;35.68;101183.75;4133288;28;19934;-56
2024/02/29 02:10:21;;;;;;;;;;;;;;;21.39;35.81;101189.22;4133469;28;19932;-54
2024/02/29 02:12:22;;;;;;;;;;;;;;;21.39;35.64;101178.53;4133258;28;19973;-54
2024/02/29 02:14:26;;;;;;;;;;;;;;;21.37;35.66;101173.31;4133657;28;19926;-55
2024/02/29 02:16:28;;;;;;;;;;;;;;;21.38;35.81;101172.31;4133467;28;19930;-55
2024/02/29 02:18:29;;;;;;;;;;;;;;;21.38;35.88;101161.59;4133317;28;20430;-54
2024/02/29 02:20:32;;;;;;;;;;;;;;;21.39;35.88;101167.81;4133373;28;19987;-53
2024/02/29 02:22:38;;;;;;;;;;;;;;;21.41;35.63;101162.34;4133103;28;19940;-55
2024/02/29 02:24:44;;;;;;;;;;;;;;;21.39;35.82;101157.13;4133240;28;19949;-54
2024/02/29 02:26:46;;;;;;;;;;;;;;;21.41;35.89;101157.88;4115765;28;19926;-53
2024/02/29 02:28:48;;;;;;;;;;;;;;;21.41;36.06;101151.66;4133133;28;19936;-57
2024/02/29 02:30:49;;;;;;;;;;;;;;;21.39;35.95;101160.63;4133083;28;19972;-55
2024/02/29 02:32:51;;;;;;;;;;;;;;;21.42;35.94;101151.53;4115805;28;19926;-55
2024/02/29 02:34:53;;;;;;;;;;;;;;;21.43;35.88;101147.88;4133068;28;19972;-54
2024/02/29 02:36:55;;;;;;;;;;;;;;;21.43;35.78;101145.22;4132629;28;20379;-55
2024/02/29 02:38:57;;;;;;;;;;;;;;;21.42;35.91;101137.31;4132682;28;19926;-54
2024/02/29 02:40:59;;;;;;;;;;;;;;;21.41;36.04;101130.25;4115711;28;19949;-55
2024/02/29 02:43:01;;;;;;;;;;;;;;;21.41;35.71;101128.44;4132936;28;19926;-54
2024/02/29 02:45:04;;;;;;;;;;;;;;;21.42;35.82;101114.06;4132974;28;19926;-55
2024/02/29 02:47:05;;;;;;;;;;;;;;;21.41;35.93;101115.06;4132873;28;19945;-55
2024/02/29 02:49:07;;;;;;;;;;;;;;;21.42;35.89;101111.38;4132883;28;20368;-55
2024/02/29 02:51:09;;;;;;;;;;;;;;;21.42;36.07;101108.72;4132644;28;20372;-52
2024/02/29 02:53:12;;;;;;;;;;;;;;;21.44;35.93;101106.78;4132826;28;20014;-53
2024/02/29 02:55:13;;;;;;;;;;;;;;;21.45;35.93;101103.16;4132821;28;19926;-52
2024/02/29 02:57:15;;;;;;;;;;;;;;;21.45;35.92;101108.50;4132861;28;20579;-54
2024/02/29 02:59:17;;;;;;;;;;;;;;;21.43;36.32;101097.03;4132185;28;19926;-54
2024/02/29 03:01:19;;;;;;;;;;;;;;;21.42;35.76;101092.66;4132603;28;19930;-53
2024/02/29 03:03:20;;;;;;;;;;;;;;;21.42;36.04;101092.66;4132577;28;20016;-54
2024/02/29 03:05:22;;;;;;;;;;;;;;;21.43;36.17;101094.38;4132420;28;19925;-53
2024/02/29 03:07:24;;;;;;;;;;;;;;;21.43;36.31;101083.66;4132503;28;19932;-53
2024/02/29 03:09:25;;;;;;;;;;;;;;;21.43;36.32;101085.50;4132443;28;19926;-53
2024/02/29 03:11:27;;;;;;;;;;;;;;;21.43;35.94;101075.63;4132389;28;19926;-54
2024/02/29 03:13:29;;;;;;;;;;;;;;;21.44;36.19;101061.28;4132391;28;20404;-53
2024/02/29 03:15:30;;;;;;;;;;;;;;;21.45;35.93;101067.53;4132400;28;20404;-55
2024/02/29 03:17:32;;;;;;;;;;;;;;;21.46;36.15;101063.84;4132370;28;20414;-53
2024/02/29 03:19:34;;;;;;;;;;;;;;;21.48;35.95;101068.13;4132368;28;20062;-54
2024/02/29 03:21:41;;;;;;;;;;;;;;;21.50;35.97;101068.84;4132137;28;19926;-54
2024/02/29 03:23:43;;;;;;;;;;;;;;;21.49;36.14;101064.47;4132491;28;19929;-51
2024/02/29 03:25:45;;;;;;;;;;;;;;;21.49;35.88;101059.13;4132575;28;20505;-53
2024/02/29 03:27:50;;;;;;;;;;;;;;;21.48;36.31;101053.88;4132122;28;20020;-55
2024/02/29 03:29:52;;;;;;;;;;;;;;;21.47;36.19;101058.41;4132221;28;19932;-55
2024/02/29 03:31:54;;;;;;;;;;;;;;;21.46;36.23;101058.50;4132300;28;19926;-54
2024/02/29 03:33:56;;;;;;;;;;;;;;;21.47;35.96;101053.06;4132104;28;20387;-54
2024/02/29 03:35:57;;;;;;;;;;;;;;;21.46;36.22;101050.47;4114485;28;19926;-53
2024/02/29 03:37:59;;;;;;;;;;;;;;;21.48;35.97;101043.19;4132067;28;19925;-53
2024/02/29 03:40:01;;;;;;;;;;;;;;;21.51;36.33;101043.81;4131849;28;20002;-55
2024/02/29 03:42:02;;;;;;;;;;;;;;;21.48;36.41;101035.16;4131969;28;19957;-53
2024/02/29 03:44:04;;;;;;;;;;;;;;;21.47;36.30;101041.47;4132048;28;20299;-54
2024/02/29 03:46:05;;;;;;;;;;;;;;;21.48;36.18;101032.47;4131971;28;19926;-54
2024/02/29 03:48:07;;;;;;;;;;;;;;;21.47;36.19;101030.78;4132059;28;19925;-53
2024/02/29 03:50:12;;;;;;;;;;;;;;;21.46;36.54;101032.59;4114423;28;19930;-54
2024/02/29 03:52:13;;;;;;;;;;;;;;;21.47;36.42;101018.25;4132078;28;20399;-53
2024/02/29 03:54:15;;;;;;;;;;;;;;;21.49;36.22;101010.09;4132266;28;19926;-54
2024/02/29 03:56:17;;;;;;;;;;;;;;;21.48;36.43;101013.75;4131971;28;20299;-53
2024/02/29 03:58:19;;;;;;;;;;;;;;;21.45;36.48;101014.00;4114801;28;19930;-54
2024/02/29 04:00:21;;;;;;;;;;;;;;;21.46;36.40;101004.97;4131944;28;20443;-56
2024/02/29 04:02:23;;;;;;;;;;;;;;;21.46;36.61;101011.19;4131755;28;20427;-55
2024/02/29 04:04:24;;;;;;;;;;;;;;;21.50;36.07;101014.50;4131512;28;19973;-55
2024/02/29 04:06:26;;;;;;;;;;;;;;;21.51;36.21;101011.69;4131844;28;19926;-53
2024/02/29 04:08:28;;;;;;;;;;;;;;;21.50;36.34;101009.13;4131674;28;19926;-53
2024/02/29 04:10:35;;;;;;;;;;;;;;;21.48;36.22;101011.94;4131673;28;19929;-52
2024/02/29 04:12:37;;;;;;;;;;;;;;;21.47;36.29;101007.56;4131670;28;20068;-54
2024/02/29 04:14:38;;;;;;;;;;;;;;;21.49;36.38;101004.75;4132045;28;19926;-53
2024/02/29 04:16:40;;;;;;;;;;;;;;;21.51;36.40;101005.50;4131740;28;20340;-53
2024/02/29 04:18:42;;;;;;;;;;;;;;;21.52;36.13;101001.84;4131424;28;19933;-53
2024/02/29 04:20:44;;;;;;;;;;;;;;;21.53;36.16;100992.81;4131506;28;19929;-52
2024/02/29 04:22:45;;;;;;;;;;;;;;;21.50;36.44;100991.25;4131749;28;19930;-54
2024/02/29 04:24:47;;;;;;;;;;;;;;;21.52;36.44;100988.47;4131729;28;20299;-51
2024/02/29 04:26:49;;;;;;;;;;;;;;;21.52;36.37;100991.16;4131533;28;19926;-53
2024/02/29 04:28:51;;;;;;;;;;;;;;;21.51;36.35;100986.75;4131822;28;19933;-53
2024/02/29 04:30:52;;;;;;;;;;;;;;;21.52;36.27;100989.31;4131678;28;19925;-54
2024/02/29 04:32:54;;;;;;;;;;;;;;;21.51;36.57;100979.56;4131262;28;19926;-57
2024/02/29 04:34:56;;;;;;;;;;;;;;;21.50;36.29;100974.34;4131639;28;20288;-54
2024/02/29 04:36:57;;;;;;;;;;;;;;;21.51;36.60;100978.72;4131540;28;20404;-53
2024/02/29 04:38:59;;;;;;;;;;;;;;;21.51;36.46;100970.72;4131402;28;20450;-54
2024/02/29 04:41:01;;;;;;;;;;;;;;;21.49;36.61;100970.81;4131433;28;19926;-55
2024/02/29 04:43:02;;;;;;;;;;;;;;;21.49;36.42;100964.63;4131729;28;19932;-53
2024/02/29 04:45:04;;;;;;;;;;;;;;;21.49;36.41;100970.81;4131478;28;20248;-53
2024/02/29 04:47:07;;;;;;;;;;;;;;;21.51;36.50;100965.34;4113797;28;19933;-50
2024/02/29 04:49:08;;;;;;;;;;;;;;;21.50;36.51;100959.13;4131542;28;20415;-53
2024/02/29 04:51:10;;;;;;;;;;;;;;;21.54;36.68;100959.75;4131429;28;19937;-54
2024/02/29 04:53:12;;;;;;;;;;;;;;;21.54;36.68;100949.03;4131697;28;19933;-54
2024/02/29 04:55:13;;;;;;;;;;;;;;;21.53;36.38;100944.66;4131679;28;19926;-52
2024/02/29 04:57:15;;;;;;;;;;;;;;;21.52;36.37;100949.16;4131515;28;19953;-52
2024/02/29 04:59:16;;;;;;;;;;;;;;;21.50;36.72;100953.78;4114517;28;20013;-52
2024/02/29 05:01:18;;;;;;;;;;;;;;;21.50;36.44;100948.44;4131430;28;19925;-53
2024/02/29 05:03:21;;;;;;;;;;;;;;;21.52;36.78;100946.50;4131240;28;19936;-51
2024/02/29 05:05:23;;;;;;;;;;;;;;;21.52;36.90;100942.97;4114012;28;19926;-54
2024/02/29 05:07:24;;;;;;;;;;;;;;;21.54;36.62;100941.00;4114190;28;19932;-53
2024/02/29 05:09:26;;;;;;;;;;;;;;;21.52;36.81;100930.44;4131494;28;19926;-55
2024/02/29 05:11:27;;;;;;;;;;;;;;;21.53;36.71;100939.31;4131344;28;19926;-55
2024/02/29 05:13:29;;;;;;;;;;;;;;;21.54;36.91;100928.50;4131153;28;19926;-54
2024/02/29 05:15:31;;;;;;;;;;;;;;;21.53;36.54;100928.59;4131236;28;19962;-52
2024/02/29 05:17:33;;;;;;;;;;;;;;;21.55;36.37;100930.19;4130995;28;19965;-54
2024/02/29 05:19:37;;;;;;;;;;;;;;;21.56;36.68;100933.72;4131219;28;19932;-54
2024/02/29 05:21:39;;;;;;;;;;;;;;;21.58;36.56;100917.56;4132183;28;19973;-54
2024/02/29 05:23:40;;;;;;;;;;;;;;;21.56;36.56;100920.34;4134518;28;20024;-52
2024/02/29 05:25:43;;;;;;;;;;;;;;;21.56;36.95;100915.00;4134132;28;19932;-55
2024/02/29 05:27:44;;;;;;;;;;;;;;;21.55;36.57;100914.13;4134389;28;19925;-52
2024/02/29 05:29:46;;;;;;;;;;;;;;;21.57;36.59;100913.19;4134245;28;20303;-55
2024/02/29 05:31:53;;;;;;;;;;;;;;;21.56;36.61;100909.63;4133887;28;20455;-51
2024/02/29 05:33:55;;;;;;;;;;;;;;;21.57;36.82;100916.72;4133968;28;19933;-53
2024/02/29 05:35:56;;;;;;;;;;;;;;;21.58;36.83;100905.06;4133772;28;20308;-54
2024/02/29 05:37:58;;;;;;;;;;;;;;;21.58;36.73;100898.84;4133917;28;19952;-53
2024/02/29 05:40:00;;;;;;;;;;;;;;;21.55;36.68;100913.28;4133871;28;19932;-54
2024/02/29 05:42:02;;;;;;;;;;;;;;;21.58;36.86;100912.22;4134057;28;19926;-52
2024/02/29 05:44:04;;;;;;;;;;;;;;;21.58;36.60;100909.53;4116675;28;19965;-54
2024/02/29 05:46:05;;;;;;;;;;;;;;;21.57;36.54;100908.69;4133797;28;19926;-55
2024/02/29 05:48:07;;;;;;;;;;;;;;;21.57;36.75;100902.47;4133846;28;19929;-54
2024/02/29 05:50:09;;;;;;;;;;;;;;;21.57;36.61;100905.16;4133807;28;20362;-55
2024/02/29 05:52:11;;;;;;;;;;;;;;;21.59;36.62;100905.91;4134003;28;20358;-54
2024/02/29 05:54:12;;;;;;;;;;;;;;;21.58;36.61;100898.84;4134142;28;19925;-53
2024/02/29 05:56:14;;;;;;;;;;;;;;;21.56;36.58;100893.59;4133444;28;19925;-52
2024/02/29 05:58:18;;;;;;;;;;;;;;;21.57;36.65;100895.31;4133751;28;19926;-55
2024/02/29 06:00:22;;;;;;;;;;;;;;;21.59;36.68;100892.50;4133400;28;19933;-54
2024/02/29 06:02:23;;;;;;;;;;;;;;;21.59;36.67;100890.69;4133705;28;19926;-53
2024/02/29 06:04:25;;;;;;;;;;;;;;;21.60;36.73;100883.53;4133582;28;19926;-54
2024/02/29 06:06:27;;;;;;;;;;;;;;;21.58;36.63;100878.28;4116641;28;19974;-53
2024/02/29 06:08:29;;;;;;;;;;;;;;;21.59;36.91;100876.47;4133717;28;19956;-53
2024/02/29 06:10:30;;;;;;;;;;;;;;;21.58;36.95;100877.44;4133645;28;20016;-54
2024/02/29 06:12:32;;;;;;;;;;;;;;;21.60;36.86;100878.16;4133510;28;20399;-55
2024/02/29 06:14:34;;;;;;;;;;;;;;;21.58;36.64;100869.41;4133283;28;20016;-54
2024/02/29 06:16:36;;;;;;;;;;;;;;;21.59;36.72;100868.44;4133439;28;19930;-55
2024/02/29 06:18:37;;;;;;;;;;;;;;;21.60;36.67;100870.13;4133167;28;19930;-54
2024/02/29 06:20:39;;;;;;;;;;;;;;;21.58;36.86;100861.38;4133226;28;19965;-54
2024/02/29 06:22:41;;;;;;;;;;;;;;;21.61;36.72;100866.50;4133422;28;19936;-53
2024/02/29 06:24:42;;;;;;;;;;;;;;;21.61;36.71;100855.78;4133684;28;19926;-55
2024/02/29 06:26:49;;;;;;;;;;;;;;;21.61;36.73;100859.28;4133387;28;19969;-54
2024/02/29 06:28:51;;;;;;;;;;;;;;;21.60;36.81;100856.75;4132966;28;19929;-51
2024/02/29 06:30:53;;;;;;;;;;;;;;;21.58;36.75;100851.53;4133286;28;19925;-54
2024/02/29 06:32:55;;;;;;;;;;;;;;;21.58;36.94;100853.34;4132730;28;20387;-55
2024/02/29 06:34:56;;;;;;;;;;;;;;;21.58;36.96;100854.22;4132756;28;20303;-53
2024/02/29 06:36:58;;;;;;;;;;;;;;;21.60;36.76;100852.25;4116026;28;19930;-53
2024/02/29 06:39:00;;;;;;;;;;;;;;;21.60;36.93;100854.06;4133124;28;19925;-53
2024/02/29 06:41:03;;;;;;;;;;;;;;;21.61;37.06;100842.41;4132995;28;19937;-50
2024/02/29 06:43:04;;;;;;;;;;;;;;;21.61;36.83;100845.06;4132892;28;19932;-54
2024/02/29 06:45:06;;;;;;;;;;;;;;;21.62;36.98;100855.66;4133172;28;19929;-52
2024/02/29 06:47:08;;;;;;;;;;;;;;;21.62;36.65;100849.47;4132954;28;20326;-54
2024/02/29 06:49:10;;;;;;;;;;;;;;;21.62;36.81;100846.78;4133089;28;19933;-54
2024/02/29 06:51:11;;;;;;;;;;;;;;;21.61;36.94;100847.75;4132961;28;19930;-54
2024/02/29 06:53:13;;;;;;;;;;;;;;;21.59;37.02;100847.03;4133029;28;20276;-49
2024/02/29 06:55:18;;;;;;;;;;;;;;;21.60;36.96;100836.19;4132996;28;20017;-53
2024/02/29 06:57:19;;;;;;;;;;;;;;;21.59;36.72;100837.16;4132818;28;19930;-54
2024/02/29 06:59:21;;;;;;;;;;;;;;;21.60;36.87;100835.34;4132663;28;20025;-54
2024/02/29 07:01:23;;;;;;;;;;;;;;;21.59;36.88;100831.78;4132677;28;19933;-54
2024/02/29 07:03:25;;;;;;;;;;;;;;;21.60;36.79;100830.00;4132668;28;19926;-53
2024/02/29 07:05:27;;;;;;;;;;;;;;;21.61;36.65;100832.53;4132631;28;20017;-53
2024/02/29 07:07:29;;;;;;;;;;;;;;;21.60;37.19;100836.19;4115556;28;20355;-51
2024/02/29 07:09:30;;;;;;;;;;;;;;;21.62;36.99;100833.41;4132798;28;19933;-54
2024/02/29 07:11:32;;;;;;;;;;;;;;;21.64;36.98;100839.47;4132729;28;20404;-54
2024/02/29 07:13:33;;;;;;;;;;;;;;;21.62;36.61;100830.72;4132256;28;20383;-53
2024/02/29 07:15:35;;;;;;;;;;;;;;;21.64;36.73;100839.47;4132484;28;20443;-52
2024/02/29 07:17:37;;;;;;;;;;;;;;;21.62;37.14;100836.91;4132587;28;19926;-54
2024/02/29 07:19:39;;;;;;;;;;;;;;;21.59;36.83;100830.97;4132390;28;19926;-53
2024/02/29 07:21:41;;;;;;;;;;;;;;;21.59;36.82;100825.59;4132521;28;20370;-53
2024/02/29 07:23:43;;;;;;;;;;;;;;;21.61;36.78;100823.66;4115313;28;20407;-53
2024/02/29 07:25:44;;;;;;;;;;;;;;;21.62;36.81;100817.34;4115118;28;19926;-53
2024/02/29 07:27:46;;;;;;;;;;;;;;;21.61;37.00;100811.13;4114678;28;20324;-50
2024/02/29 07:29:48;;;;;;;;;;;;;;;21.64;36.73;100818.91;4132228;28;20395;-53
2024/02/29 07:31:49;;;;;;;;;;;;;;;21.64;36.93;100812.69;4132167;28;19926;-53
2024/02/29 07:33:55;;;;;;;;;;;;;;;21.64;36.80;100804.66;4132199;28;20029;-53
2024/02/29 07:35:57;;;;;;;;;;;;;;;21.65;36.83;100812.59;4132174;28;19937;-55
2024/02/29 07:37:58;;;;;;;;;;;;;;;21.66;36.84;100808.91;4132289;28;19926;-51
2024/02/29 07:40:00;;;;;;;;;;;;;;;21.63;36.84;100803.81;4132231;28;20415;-54
2024/02/29 07:42:03;;;;;;;;;;;;;;;21.63;37.02;100806.50;4132235;28;20507;-53
2024/02/29 07:44:04;;;;;;;;;;;;;;;21.63;36.85;100795.81;4131891;28;20354;-53
2024/02/29 07:46:06;;;;;;;;;;;;;;;21.63;37.06;100798.47;4114875;28;20419;-54
2024/02/29 07:48:08;;;;;;;;;;;;;;;21.64;36.70;100797.50;4132350;28;19926;-54
2024/02/29 07:50:09;;;;;;;;;;;;;;;21.64;36.86;100796.63;4131895;28;19934;-54
2024/02/29 07:52:11;;;;;;;;;;;;;;;21.64;37.04;100796.63;4132188;28;20037;-54
2024/02/29 07:54:13;;;;;;;;;;;;;;;21.64;36.97;100789.47;4132023;28;20332;-54
2024/02/29 07:56:14;;;;;;;;;;;;;;;21.66;36.71;100790.19;4131563;28;19980;-52
2024/02/29 07:58:16;;;;;;;;;;;;;;;21.67;36.82;100794.56;4132034;28;20028;-53
2024/02/29 08:00:18;;;;;;;;;;;;;;;21.65;36.83;100791.19;4131698;28;19976;-55
2024/02/29 08:02:19;;;;;;;;;;;;;;;21.65;36.98;100782.28;4132005;28;19926;-55
2024/02/29 08:04:25;;;;;;;;;;;;;;;21.65;36.96;100777.81;4115123;28;19973;-52
2024/02/29 08:06:26;;;;;;;;;;;;;;;21.63;36.85;100785.09;4114495;28;19926;-53
2024/02/29 08:08:28;;;;;;;;;;;;;;;21.63;36.75;100778.88;4114565;28;20273;-54
2024/02/29 08:10:29;;;;;;;;;;;;;;;21.62;36.98;100772.69;4131343;28;19926;-54
2024/02/29 08:12:31;;;;;;;;;;;;;;;21.62;36.85;100771.84;4131848;28;20420;-53
2024/02/29 08:14:33;;;;;;;;;;;;;;;21.63;37.11;100770.84;4131764;28;19962;-54
2024/02/29 08:16:34;;;;;;;;;;;;;;;21.63;36.81;100768.16;4114361;28;19965;-52
2024/02/29 08:18:38;;;;;;;;;;;;;;;21.63;36.70;100761.00;4131516;28;20035;-53
2024/02/29 08:20:45;;;;;;;;;;;;;;;21.64;37.02;100762.72;4131604;28;19926;-53
2024/02/29 08:22:48;;;;;;;;;;;;;;;21.65;36.69;100759.06;4131613;28;20012;-54
2024/02/29 08:24:50;;;;;;;;;;;;;;;21.63;36.59;100755.66;4131313;28;19926;-53
2024/02/29 08:26:52;;;;;;;;;;;;;;;21.63;36.98;100752.97;4131746;28;19936;-55
2024/02/29 08:28:53;;;;;;;;;;;;;;;21.63;36.92;100752.97;4131448;28;19926;-54
2024/02/29 08:30:54;;;;;;;;;;;;;;;21.62;36.73;100748.59;4131725;28;20021;-54
2024/02/29 08:32:56;;;;;;;;;;;;;;;21.62;36.59;100751.28;4131577;28;19957;-54
2024/02/29 08:34:58;;;;;;;;;;;;;;;21.62;37.10;100743.25;4131362;28;19928;-54
2024/02/29 08:36:59;;;;;;;;;;;;;;;21.63;36.86;100744.94;4131330;28;20041;-52
2024/02/29 08:39:01;;;;;;;;;;;;;;;21.63;36.74;100757.47;4131034;28;19930;-54
2024/02/29 08:41:04;;;;;;;;;;;;;;;21.62;36.75;100745.91;4130882;28;19932;-53
2024/02/29 08:43:06;;;;;;;;;;;;;;;21.60;36.88;100747.88;4131184;28;19926;-53
2024/02/29 08:45:08;;;;;;;;;;;;;;;21.58;36.76;100743.63;4131558;28;19926;-54
2024/02/29 08:47:10;;;;;;;;;;;;;;;21.57;37.04;100744.59;4131603;28;19925;-53
2024/02/29 08:49:12;;;;;;;;;;;;;;;21.56;36.84;100735.69;4131509;28;19941;-53
2024/02/29 08:51:13;;;;;;;;;;;;;;;21.55;36.81;100729.47;4131532;28;19949;-51
2024/02/29 08:53:15;;;;;;;;;;;;;;;21.54;36.77;100732.28;4131622;28;19925;-49
2024/02/29 08:55:16;;;;;;;;;;;;;;;21.51;36.94;100736.06;4131039;28;19930;-50
2024/02/29 08:57:19;;;;;;;;;;;;;;;21.49;37.08;100727.28;4133352;28;20012;-52
2024/02/29 08:59:20;;;;;;;;;;;;;;;21.49;37.18;100721.09;4117113;28;19927;-51
2024/02/29 09:01:26;;;;;;;;;;;;;;;21.49;36.90;100716.59;4134508;28;19926;-53
2024/02/29 09:03:27;;;;;;;;;;;;;;;21.49;37.10;100716.59;4134540;28;19978;-53
2024/02/29 09:05:29;;;;;;;;;;;;;;;21.49;37.11;100713.09;4134481;28;20391;-53
2024/02/29 09:07:30;;;;;;;;;;;;;;;21.49;37.14;100715.75;4134456;28;20032;-53
2024/02/29 09:09:32;;;;;;;;;;;;;;;21.50;36.99;100709.44;4117034;28;20025;-54
2024/02/29 09:11:38;;;;;;;;;;;;;;;21.50;37.20;100712.09;4134165;28;19969;-50
2024/02/29 09:13:45;;;;;;;;;;;;;;;21.52;37.10;100711.00;4134392;28;19936;-51
2024/02/29 09:15:47;;;;;;;;;;;;;;;21.53;37.09;100707.34;4134524;28;19926;-53
2024/02/29 09:17:49;;;;;;;;;;;;;;;21.50;36.91;100704.91;4134440;28;20283;-51
2024/02/29 09:19:51;;;;;;;;;;;;;;;21.48;37.12;100701.53;4134572;28;20028;-53
2024/02/29 09:21:52;;;;;;;;;;;;;;;21.48;37.08;100700.66;4117154;28;19930;-53
2024/02/29 09:23:57;;;;;;;;;;;;;;;21.45;37.22;100691.06;4134230;28;20247;-54
2024/02/29 09:25:58;;;;;;;;;;;;;;;21.46;37.09;100697.25;4134209;28;20020;-51
2024/02/29 09:28:00;;;;;;;;;;;;;;;21.34;37.28;100673.22;4134270;28;20405;-52
2024/02/29 09:30:01;;;;;;;;;;;;;;;21.46;37.03;100682.06;4134171;28;19925;-54
2024/02/29 09:32:03;;;;;;;;;;;;;;;21.48;37.17;100677.47;4134079;28;19968;-52
2024/02/29 09:34:07;;;;;;;;;;;;;;;21.50;36.96;100680.00;4133743;28;19980;-54
2024/02/29 09:36:13;;;;;;;;;;;;;;;21.53;36.97;100683.28;4133804;28;19933;-55
2024/02/29 09:38:15;;;;;;;;;;;;;;;21.52;37.11;100673.53;4133590;28;19926;-49
2024/02/29 09:40:20;;;;;;;;;;;;;;;21.55;37.33;100672.44;4116528;28;19948;-52
2024/02/29 09:42:23;;;;;;;;;;;;;;;21.52;36.92;100670.88;4133898;28;19926;-52
2024/02/29 09:44:25;;;;;;;;;;;;;;;21.52;36.90;100668.19;4134003;28;19932;-54
2024/02/29 09:46:27;;;;;;;;;;;;;;;21.50;36.97;100669.28;4133904;28;20392;-51
2024/02/29 09:48:33;;;;;;;;;;;;;;;21.47;36.93;100667.72;4133879;28;20387;-52
2024/02/29 09:50:40;;;;;;;;;;;;;;;21.48;37.33;100668.56;4133926;28;19926;-52
2024/02/29 09:52:50;;;;;;;;;;;;;;;21.49;37.20;100663.06;4133634;28;19969;-54
2024/02/29 09:54:52;;;;;;;;;;;;;;;21.53;37.08;100666.34;4133712;28;20020;-54
2024/02/29 09:56:58;;;;;;;;;;;;;;;21.53;37.29;100655.66;4133733;28;19957;-55
2024/02/29 09:59:01;;;;;;;;;;;;;;;21.54;37.04;100652.88;4133812;28;20284;-54
2024/02/29 10:01:03;;;;;;;;;;;;;;;21.54;37.14;100650.19;4133714;28;19930;-54
2024/02/29 10:03:11;;;;;;;;;;;;;;;21.55;37.16;100648.34;4133816;28;20419;-53
2024/02/29 10:05:12;;;;;;;;;;;;;;;21.55;37.11;100638.47;4133702;28;19930;-54
2024/02/29 10:07:14;;;;;;;;;;;;;;;21.53;37.08;100640.47;4133008;28;19930;-53
2024/02/29 10:09:16;;;;;;;;;;;;;;;21.53;37.35;100644.94;4121197;28;20017;-53
2024/02/29 10:11:18;;;;;;;;;;;;;;;21.50;37.17;100640.69;4116811;28;19926;-52
2024/02/29 10:13:20;;;;;;;;;;;;;;;21.50;37.30;100634.50;4117088;28;20244;-54
2024/02/29 10:15:28;;;;;;;;;;;;;;;21.46;37.54;100630.38;4116082;28;19926;-54
2024/02/29 10:17:31;;;;;;;;;;;;;;;21.47;37.61;100626.72;4116551;28;19937;-55
2024/02/29 10:19:37;;;;;;;;;;;;;;;21.40;37.84;100626.41;4115920;28;20686;-54
2024/02/29 10:21:39;;;;;;;;;;;;;;;21.38;37.92;100621.16;4116059;28;19926;-53
2024/02/29 10:23:42;;;;;;;;;;;;;;;21.32;37.86;100616.31;4116168;28;19926;-52
2024/02/29 10:25:44;;;;;;;;;;;;;;;21.24;38.08;100621.47;4117032;28;19926;-53
2024/02/29 10:27:46;;;;;;;;;;;;;;;21.24;38.21;100621.47;4115861;28;19932;-55